Time;durP1;ratioP1;P1;durP2;ratioP2;P2;SDS_P1;SDS_P2;PMS_P1;PMS_P2;Temp;Humidity;BMP_temperature;BMP_pressure;BME280_temperature;BME280_humidity;BME280_pressure;Samples;Min_cycle;Max_cycle;Signal;HPM_P1;HPM_P2
2023/11/30 00:02:36;;;;;;;0.40;0.40;;;;;;;;;;4431474;32;20053;-59
2023/11/30 00:05:06;;;;;;;0.35;0.35;;;;;;;;;;4432915;32;20142;-61
2023/11/30 00:07:32;;;;;;;0.37;0.37;;;;;;;;;;4430626;32;20334;-60
2023/11/30 00:09:58;;;;;;;0.47;0.47;;;;;;;;;;4430032;32;20097;-60
2023/11/30 00:12:24;;;;;;;0.30;0.30;;;;;;;;;;4427956;32;20090;-60
2023/11/30 00:14:50;;;;;;;0.40;0.40;;;;;;;;;;4430966;32;20072;-61
2023/11/30 00:17:16;;;;;;;0.43;0.43;;;;;;;;;;4429452;32;20093;-60
2023/11/30 00:19:42;;;;;;;0.30;0.30;;;;;;;;;;4431016;32;20429;-60
2023/11/30 00:22:08;;;;;;;0.30;0.30;;;;;;;;;;4429391;32;20086;-60
2023/11/30 00:24:33;;;;;;;0.40;0.40;;;;;;;;;;4432901;32;20085;-59
2023/11/30 00:26:59;;;;;;;0.30;0.30;;;;;;;;;;4428955;32;20097;-59
2023/11/30 00:29:25;;;;;;;0.40;0.40;;;;;;;;;;4430588;32;20069;-61
2023/11/30 00:31:51;;;;;;;0.40;0.40;;;;;;;;;;4426921;32;20077;-60
2023/11/30 00:34:17;;;;;;;0.52;0.52;;;;;;;;;;4414411;32;20097;-60
2023/11/30 00:36:43;;;;;;;0.30;0.30;;;;;;;;;;4431353;32;20102;-60
2023/11/30 00:39:09;;;;;;;0.40;0.40;;;;;;;;;;4431270;32;20131;-60
2023/11/30 00:41:35;;;;;;;0.30;0.30;;;;;;;;;;4429603;32;20070;-60
2023/11/30 00:44:01;;;;;;;0.40;0.40;;;;;;;;;;4430873;32;20132;-59
2023/11/30 00:46:26;;;;;;;0.40;0.40;;;;;;;;;;4430194;32;20162;-60
2023/11/30 00:48:52;;;;;;;0.37;0.37;;;;;;;;;;4428356;32;20540;-59
2023/11/30 00:51:18;;;;;;;0.50;0.50;;;;;;;;;;4427147;32;20073;-60
2023/11/30 00:53:44;;;;;;;0.50;0.50;;;;;;;;;;4429890;32;20081;-60
2023/11/30 00:56:11;;;;;;;0.32;0.32;;;;;;;;;;4433280;32;20086;-60
2023/11/30 00:58:38;;;;;;;0.40;0.40;;;;;;;;;;4428261;32;20084;-60
2023/11/30 01:01:04;;;;;;;0.40;0.40;;;;;;;;;;4415528;32;20454;-60
2023/11/30 01:03:29;;;;;;;0.60;0.60;;;;;;;;;;4431773;32;20053;-60
2023/11/30 01:05:55;;;;;;;0.50;0.50;;;;;;;;;;4430968;32;20141;-60
2023/11/30 01:08:21;;;;;;;0.40;0.40;;;;;;;;;;4431289;32;20096;-60
2023/11/30 01:10:47;;;;;;;0.35;0.35;;;;;;;;;;4430047;32;20473;-60
2023/11/30 01:13:13;;;;;;;0.37;0.37;;;;;;;;;;4416644;32;20064;-59
2023/11/30 01:15:39;;;;;;;0.50;0.50;;;;;;;;;;4431462;32;20414;-60
2023/11/30 01:18:05;;;;;;;0.37;0.37;;;;;;;;;;4427899;32;20112;-58
2023/11/30 01:20:32;;;;;;;0.40;0.40;;;;;;;;;;4428387;32;20093;-61
2023/11/30 01:22:58;;;;;;;4.05;1.42;;;;;;;;;;4430348;32;20124;-59
2023/11/30 01:25:24;;;;;;;0.40;0.40;;;;;;;;;;4430968;32;20082;-60
2023/11/30 01:27:51;;;;;;;0.30;0.30;;;;;;;;;;4429586;32;20429;-58
2023/11/30 01:30:17;;;;;;;1.25;1.15;;;;;;;;;;4429751;32;20165;-61
2023/11/30 01:32:43;;;;;;;0.40;0.40;;;;;;;;;;4428863;32;20530;-60
2023/11/30 01:35:09;;;;;;;0.30;0.30;;;;;;;;;;4429273;32;20459;-59
2023/11/30 01:37:35;;;;;;;1.45;0.95;;;;;;;;;;4432057;32;20078;-59
2023/11/30 01:40:01;;;;;;;1.25;0.73;;;;;;;;;;4428618;32;20090;-60
2023/11/30 01:42:28;;;;;;;0.40;0.40;;;;;;;;;;4427883;32;20959;-60
2023/11/30 01:44:54;;;;;;;0.68;0.65;;;;;;;;;;4431130;32;20073;-60
2023/11/30 01:47:20;;;;;;;0.50;0.50;;;;;;;;;;4415563;32;20517;-59
2023/11/30 01:49:46;;;;;;;0.40;0.40;;;;;;;;;;4428077;32;20085;-61
2023/11/30 01:52:12;;;;;;;0.40;0.40;;;;;;;;;;4430519;32;20438;-59
2023/11/30 01:54:38;;;;;;;1.25;1.15;;;;;;;;;;4430545;32;20101;-60
2023/11/30 01:57:04;;;;;;;0.43;0.43;;;;;;;;;;4418036;32;20136;-59
2023/11/30 01:59:30;;;;;;;0.40;0.40;;;;;;;;;;4435381;32;20077;-59
2023/11/30 02:01:57;;;;;;;0.77;0.77;;;;;;;;;;4428748;32;20128;-60
2023/11/30 02:04:23;;;;;;;0.45;0.45;;;;;;;;;;4430413;32;20089;-59
2023/11/30 02:06:49;;;;;;;0.40;0.40;;;;;;;;;;4429814;32;20509;-61
2023/11/30 02:09:15;;;;;;;0.47;0.47;;;;;;;;;;4428456;32;20113;-61
2023/11/30 02:11:41;;;;;;;0.30;0.30;;;;;;;;;;4426669;32;20077;-60
2023/11/30 02:14:07;;;;;;;0.37;0.37;;;;;;;;;;4428974;32;20061;-60
2023/11/30 02:16:33;;;;;;;1.85;1.27;;;;;;;;;;4428654;32;20137;-59
2023/11/30 02:18:59;;;;;;;0.40;0.40;;;;;;;;;;4429964;32;20077;-61
2023/11/30 02:21:25;;;;;;;0.40;0.40;;;;;;;;;;4424501;32;20089;-60
2023/11/30 02:23:51;;;;;;;0.40;0.40;;;;;;;;;;4428137;32;20575;-60
2023/11/30 02:26:17;;;;;;;0.40;0.40;;;;;;;;;;4429473;32;20123;-59
2023/11/30 02:28:44;;;;;;;0.40;0.40;;;;;;;;;;4430700;32;20086;-60
2023/11/30 02:31:10;;;;;;;0.40;0.40;;;;;;;;;;4415054;32;20060;-61
2023/11/30 02:33:36;;;;;;;0.40;0.40;;;;;;;;;;4414986;32;20161;-58
2023/11/30 02:36:02;;;;;;;0.30;0.30;;;;;;;;;;4427370;32;20116;-60
2023/11/30 02:38:27;;;;;;;0.40;0.40;;;;;;;;;;4429108;32;20344;-59
2023/11/30 02:40:53;;;;;;;1.85;1.40;;;;;;;;;;4428455;32;20156;-60
2023/11/30 02:43:19;;;;;;;0.47;0.47;;;;;;;;;;4416368;32;20138;-60
2023/11/30 02:45:45;;;;;;;0.50;0.50;;;;;;;;;;4426423;32;20073;-59
2023/11/30 02:48:11;;;;;;;0.35;0.35;;;;;;;;;;4428644;32;20069;-60
2023/11/30 02:50:37;;;;;;;0.40;0.40;;;;;;;;;;4426459;32;20472;-61
2023/11/30 02:53:03;;;;;;;0.40;0.40;;;;;;;;;;4427303;32;20213;-61
2023/11/30 02:55:29;;;;;;;0.30;0.30;;;;;;;;;;4426894;32;20062;-60
2023/11/30 02:57:56;;;;;;;0.73;0.73;;;;;;;;;;4429699;32;20093;-60
2023/11/30 03:00:22;;;;;;;1.35;0.93;;;;;;;;;;4430214;32;20105;-60
2023/11/30 03:02:47;;;;;;;0.55;0.55;;;;;;;;;;4431552;32;20074;-60
2023/11/30 03:05:13;;;;;;;0.40;0.40;;;;;;;;;;4431421;32;20065;-60
2023/11/30 03:07:39;;;;;;;0.40;0.40;;;;;;;;;;4430177;32;20520;-60
2023/11/30 03:10:05;;;;;;;0.40;0.40;;;;;;;;;;4432780;32;20119;-59
2023/11/30 03:12:31;;;;;;;0.45;0.45;;;;;;;;;;4427756;32;20143;-61
2023/11/30 03:14:57;;;;;;;0.77;0.77;;;;;;;;;;4430287;32;20077;-60
2023/11/30 03:17:23;;;;;;;0.40;0.40;;;;;;;;;;4434551;32;20125;-59
2023/11/30 03:19:49;;;;;;;0.40;0.40;;;;;;;;;;4433730;32;20438;-59
2023/11/30 03:22:15;;;;;;;0.52;0.52;;;;;;;;;;4431086;32;20073;-59
2023/11/30 03:24:41;;;;;;;0.30;0.30;;;;;;;;;;4416819;32;20540;-60
2023/11/30 03:27:11;;;;;;;0.40;0.40;;;;;;;;;;4429183;32;20141;-58
2023/11/30 03:29:37;;;;;;;0.60;0.60;;;;;;;;;;4427892;32;20275;-59
2023/11/30 03:32:03;;;;;;;0.40;0.40;;;;;;;;;;4431526;32;20061;-60
2023/11/30 03:34:29;;;;;;;0.30;0.30;;;;;;;;;;4432743;32;20094;-60
2023/11/30 03:36:55;;;;;;;0.70;0.70;;;;;;;;;;4429829;32;20085;-60
2023/11/30 03:39:21;;;;;;;0.40;0.40;;;;;;;;;;4434543;32;20081;-59
2023/11/30 03:41:47;;;;;;;0.30;0.30;;;;;;;;;;4434394;32;20509;-60
2023/11/30 03:44:12;;;;;;;2.17;1.27;;;;;;;;;;4434548;32;20073;-58
2023/11/30 03:46:38;;;;;;;0.70;0.70;;;;;;;;;;4429388;32;20524;-60
2023/11/30 03:49:04;;;;;;;0.30;0.30;;;;;;;;;;4433157;32;20132;-60
2023/11/30 03:51:30;;;;;;;0.98;0.98;;;;;;;;;;4428750;32;20583;-60
2023/11/30 03:53:56;;;;;;;0.40;0.40;;;;;;;;;;4430562;32;20073;-60
2023/11/30 03:56:22;;;;;;;0.43;0.43;;;;;;;;;;4433310;32;20074;-60
2023/11/30 03:58:48;;;;;;;0.35;0.35;;;;;;;;;;4429278;32;20565;-60
2023/11/30 04:01:21;;;;;;;0.68;0.68;;;;;;;;;;4431666;32;20069;-61
2023/11/30 04:03:47;;;;;;;0.40;0.40;;;;;;;;;;4417142;32;20074;-60
2023/11/30 04:06:18;;;;;;;0.57;0.57;;;;;;;;;;4433903;32;20069;-60
2023/11/30 04:08:44;;;;;;;0.52;0.52;;;;;;;;;;4428515;32;20069;-60
2023/11/30 04:11:14;;;;;;;0.40;0.40;;;;;;;;;;4433902;32;20544;-60
2023/11/30 04:13:40;;;;;;;0.77;0.77;;;;;;;;;;4413949;32;20077;-60
2023/11/30 04:16:06;;;;;;;1.83;1.27;;;;;;;;;;4430196;32;20068;-59
2023/11/30 04:18:32;;;;;;;0.77;0.77;;;;;;;;;;4428731;32;20100;-60
2023/11/30 04:20:58;;;;;;;0.47;0.47;;;;;;;;;;4435081;32;20132;-60
2023/11/30 04:23:24;;;;;;;0.40;0.40;;;;;;;;;;4424186;32;20112;-60
2023/11/30 04:25:50;;;;;;;0.40;0.40;;;;;;;;;;4429720;32;20073;-60
2023/11/30 04:28:15;;;;;;;0.40;0.40;;;;;;;;;;4429490;32;20056;-60
2023/11/30 04:30:41;;;;;;;0.40;0.40;;;;;;;;;;4429478;32;20081;-60
2023/11/30 04:33:07;;;;;;;0.40;0.40;;;;;;;;;;4431668;32;20076;-61
2023/11/30 04:35:33;;;;;;;0.43;0.43;;;;;;;;;;4432328;32;20116;-59
2023/11/30 04:37:59;;;;;;;0.47;0.47;;;;;;;;;;4428399;32;20498;-61
2023/11/30 04:40:25;;;;;;;0.50;0.50;;;;;;;;;;4416672;32;20120;-59
2023/11/30 04:42:51;;;;;;;0.40;0.40;;;;;;;;;;4427980;32;20550;-61
2023/11/30 04:45:17;;;;;;;0.40;0.40;;;;;;;;;;4424852;32;20126;-60
2023/11/30 04:47:43;;;;;;;0.40;0.40;;;;;;;;;;4432111;32;20121;-61
2023/11/30 04:50:10;;;;;;;0.55;0.55;;;;;;;;;;4429959;32;20082;-60
2023/11/30 04:52:36;;;;;;;18.50;1.70;;;;;;;;;;4434598;32;21623;-61
2023/11/30 04:55:02;;;;;;;0.50;0.50;;;;;;;;;;4432069;32;20115;-60
2023/11/30 04:57:27;;;;;;;0.40;0.40;;;;;;;;;;4434083;32;20127;-58
2023/11/30 04:59:54;;;;;;;0.40;0.40;;;;;;;;;;4429299;32;20073;-61
2023/11/30 05:02:19;;;;;;;0.40;0.40;;;;;;;;;;4418483;32;20532;-61
2023/11/30 05:04:45;;;;;;;0.60;0.60;;;;;;;;;;4417863;32;20083;-61
2023/11/30 05:07:11;;;;;;;0.40;0.40;;;;;;;;;;4433116;32;20121;-60
2023/11/30 05:09:37;;;;;;;0.80;0.80;;;;;;;;;;4429027;32;20057;-60
2023/11/30 05:12:03;;;;;;;0.45;0.45;;;;;;;;;;4428732;32;20081;-58
2023/11/30 05:14:29;;;;;;;0.40;0.40;;;;;;;;;;4427598;32;20073;-60
2023/11/30 05:16:55;;;;;;;0.40;0.40;;;;;;;;;;4429465;32;20930;-60
2023/11/30 05:19:21;;;;;;;0.50;0.50;;;;;;;;;;4431439;32;20558;-60
2023/11/30 05:21:47;;;;;;;0.40;0.40;;;;;;;;;;4425303;32;20415;-59
2023/11/30 05:24:13;;;;;;;0.40;0.40;;;;;;;;;;4430020;32;20094;-60
2023/11/30 05:26:39;;;;;;;0.40;0.40;;;;;;;;;;4427173;32;20077;-61
2023/11/30 05:29:04;;;;;;;0.40;0.40;;;;;;;;;;4427997;32;20088;-59
2023/11/30 05:31:30;;;;;;;0.40;0.40;;;;;;;;;;4430673;32;20069;-60
2023/11/30 05:33:56;;;;;;;0.40;0.40;;;;;;;;;;4428786;32;20060;-60
2023/11/30 05:36:22;;;;;;;0.75;0.75;;;;;;;;;;4432863;32;20065;-61
2023/11/30 05:38:48;;;;;;;0.37;0.37;;;;;;;;;;4431631;32;20119;-60
2023/11/30 05:41:14;;;;;;;0.60;0.60;;;;;;;;;;4431425;32;20086;-59
2023/11/30 05:43:40;;;;;;;0.40;0.40;;;;;;;;;;4431883;32;20073;-59
2023/11/30 05:46:06;;;;;;;0.47;0.47;;;;;;;;;;4430791;32;20476;-61
2023/11/30 05:48:33;;;;;;;0.90;0.90;;;;;;;;;;4430467;32;20435;-59
2023/11/30 05:50:59;;;;;;;0.32;0.32;;;;;;;;;;4426121;32;20089;-58
2023/11/30 05:53:25;;;;;;;0.95;0.93;;;;;;;;;;4427799;32;20098;-60
2023/11/30 05:55:51;;;;;;;0.80;0.80;;;;;;;;;;4430563;32;20076;-58
2023/11/30 05:58:17;;;;;;;0.40;0.40;;;;;;;;;;4425116;32;20133;-60
2023/11/30 06:00:43;;;;;;;0.50;0.50;;;;;;;;;;4427609;32;20690;-59
2023/11/30 06:03:09;;;;;;;0.40;0.40;;;;;;;;;;4427775;32;20065;-60
2023/11/30 06:05:35;;;;;;;0.45;0.45;;;;;;;;;;4419995;32;20141;-61
2023/11/30 06:08:00;;;;;;;0.50;0.50;;;;;;;;;;4425255;32;20132;-59
2023/11/30 06:10:26;;;;;;;1.17;0.50;;;;;;;;;;4423144;32;20122;-59
2023/11/30 06:12:52;;;;;;;0.40;0.40;;;;;;;;;;4422459;32;20089;-62
2023/11/30 06:15:18;;;;;;;1.90;1.02;;;;;;;;;;4417201;32;20572;-60
2023/11/30 06:17:44;;;;;;;0.60;0.60;;;;;;;;;;4427283;32;20065;-60
2023/11/30 06:20:12;;;;;;;1.45;1.30;;;;;;;;;;4420608;32;20068;-60
2023/11/30 06:22:38;;;;;;;0.40;0.40;;;;;;;;;;4413132;32;20189;-60
2023/11/30 06:25:04;;;;;;;8.45;2.95;;;;;;;;;;4425017;32;20061;-61
2023/11/30 06:27:30;;;;;;;0.50;0.50;;;;;;;;;;4412677;32;20065;-61
2023/11/30 06:29:56;;;;;;;0.73;0.73;;;;;;;;;;4423809;32;20431;-59
2023/11/30 06:32:22;;;;;;;0.50;0.50;;;;;;;;;;4422812;32;20798;-59
2023/11/30 06:34:48;;;;;;;0.40;0.40;;;;;;;;;;4425591;32;20117;-60
2023/11/30 06:37:14;;;;;;;2.83;1.95;;;;;;;;;;4427056;32;20080;-59
2023/11/30 06:39:41;;;;;;;0.93;0.90;;;;;;;;;;4427357;32;20065;-61
2023/11/30 06:42:07;;;;;;;0.73;0.73;;;;;;;;;;4420968;32;20074;-61
2023/11/30 06:44:33;;;;;;;0.85;0.85;;;;;;;;;;4414191;32;20081;-64
2023/11/30 06:46:59;;;;;;;2.37;1.62;;;;;;;;;;4419199;32;20074;-59
2023/11/30 06:49:25;;;;;;;0.40;0.40;;;;;;;;;;4411602;32;20060;-61
2023/11/30 06:51:52;;;;;;;0.43;0.43;;;;;;;;;;4406441;32;20085;-61
2023/11/30 06:54:18;;;;;;;0.40;0.40;;;;;;;;;;4419365;32;20109;-60
2023/11/30 06:56:45;;;;;;;0.60;0.60;;;;;;;;;;4405074;32;20070;-60
2023/11/30 06:59:10;;;;;;;0.47;0.47;;;;;;;;;;4412472;32;20100;-61
2023/11/30 07:01:36;;;;;;;0.40;0.40;;;;;;;;;;4386320;32;20104;-60
2023/11/30 07:04:02;;;;;;;0.73;0.73;;;;;;;;;;4386674;32;20152;-62
2023/11/30 07:06:30;;;;;;;0.40;0.40;;;;;;;;;;4377619;32;20088;-62
2023/11/30 07:08:56;;;;;;;0.65;0.65;;;;;;;;;;4392588;32;20188;-61
2023/11/30 07:11:22;;;;;;;0.80;0.80;;;;;;;;;;4400139;32;20110;-61
2023/11/30 07:13:48;;;;;;;0.32;0.32;;;;;;;;;;4405232;32;21634;-61
2023/11/30 07:16:14;;;;;;;1.23;0.90;;;;;;;;;;4380042;32;20290;-59
2023/11/30 07:18:40;;;;;;;0.40;0.40;;;;;;;;;;4391970;32;20580;-59
2023/11/30 07:21:11;;;;;;;1.08;1.08;;;;;;;;;;4390839;32;20109;-61
2023/11/30 07:23:37;;;;;;;0.52;0.52;;;;;;;;;;4369617;32;20203;-60
2023/11/30 07:26:09;;;;;;;3.50;1.15;;;;;;;;;;4385468;32;20754;-60
2023/11/30 07:28:35;;;;;;;0.77;0.77;;;;;;;;;;4399533;32;20167;-59
2023/11/30 07:31:01;;;;;;;0.40;0.40;;;;;;;;;;4393814;32;21190;-62
2023/11/30 07:33:27;;;;;;;0.40;0.40;;;;;;;;;;4405220;32;20136;-59
2023/11/30 07:35:53;;;;;;;0.50;0.50;;;;;;;;;;4411105;32;20073;-61
2023/11/30 07:38:19;;;;;;;0.40;0.40;;;;;;;;;;4408060;32;20139;-61
2023/11/30 07:40:45;;;;;;;0.40;0.40;;;;;;;;;;4404261;32;20128;-59
2023/11/30 07:43:11;;;;;;;0.40;0.40;;;;;;;;;;4404224;32;20097;-61
2023/11/30 07:45:38;;;;;;;0.43;0.43;;;;;;;;;;4381456;32;20671;-61
2023/11/30 07:48:05;;;;;;;0.50;0.50;;;;;;;;;;4383283;32;20576;-61
2023/11/30 07:50:31;;;;;;;0.70;0.70;;;;;;;;;;4409828;32;20089;-61
2023/11/30 07:52:57;;;;;;;0.60;0.60;;;;;;;;;;4401190;32;20412;-61
2023/11/30 07:55:23;;;;;;;0.40;0.40;;;;;;;;;;4405940;32;20097;-60
2023/11/30 07:57:49;;;;;;;0.40;0.40;;;;;;;;;;4395564;32;20109;-60
2023/11/30 08:00:16;;;;;;;0.40;0.40;;;;;;;;;;4396636;32;20118;-62
2023/11/30 08:02:42;;;;;;;0.60;0.60;;;;;;;;;;4392282;32;20110;-61
2023/11/30 08:05:09;;;;;;;0.40;0.40;;;;;;;;;;4394098;32;21126;-62
2023/11/30 08:07:35;;;;;;;0.77;0.77;;;;;;;;;;4394612;32;20111;-61
2023/11/30 08:10:00;;;;;;;0.50;0.50;;;;;;;;;;4393091;32;20942;-62
2023/11/30 08:12:26;;;;;;;0.40;0.40;;;;;;;;;;4403684;32;20101;-61
2023/11/30 08:14:53;;;;;;;0.60;0.60;;;;;;;;;;4395137;32;20196;-61
2023/11/30 08:17:19;;;;;;;0.55;0.55;;;;;;;;;;4393160;32;20742;-60
2023/11/30 08:19:45;;;;;;;0.62;0.62;;;;;;;;;;4404639;32;20093;-61
2023/11/30 08:22:11;;;;;;;1.52;1.42;;;;;;;;;;4394568;32;20101;-61
2023/11/30 08:24:38;;;;;;;1.10;1.08;;;;;;;;;;4388698;32;20081;-61
2023/11/30 08:27:06;;;;;;;0.52;0.52;;;;;;;;;;4387495;32;20733;-60
2023/11/30 08:29:32;;;;;;;1.00;0.95;;;;;;;;;;4398229;32;20085;-61
2023/11/30 08:31:58;;;;;;;0.40;0.40;;;;;;;;;;4386368;32;20332;-61
2023/11/30 08:34:24;;;;;;;0.40;0.40;;;;;;;;;;4396502;32;20077;-62
2023/11/30 08:36:50;;;;;;;0.40;0.40;;;;;;;;;;4389967;32;20311;-61
2023/11/30 08:39:23;;;;;;;0.47;0.47;;;;;;;;;;4404057;32;20726;-61
2023/11/30 08:41:49;;;;;;;0.40;0.40;;;;;;;;;;4407179;32;20101;-59
2023/11/30 08:44:15;;;;;;;0.52;0.52;;;;;;;;;;4407113;32;20494;-62
2023/11/30 08:46:40;;;;;;;0.40;0.40;;;;;;;;;;4384390;32;20819;-62
2023/11/30 08:49:06;;;;;;;0.40;0.40;;;;;;;;;;4396319;32;20415;-61
2023/11/30 08:51:32;;;;;;;0.40;0.40;;;;;;;;;;4404126;32;20920;-61
2023/11/30 08:53:58;;;;;;;0.47;0.47;;;;;;;;;;4386923;32;20339;-62
2023/11/30 08:56:25;;;;;;;0.40;0.40;;;;;;;;;;4392437;32;20526;-61
2023/11/30 08:58:52;;;;;;;2.75;0.98;;;;;;;;;;4391309;32;20143;-62
2023/11/30 09:01:18;;;;;;;1.98;1.42;;;;;;;;;;4383163;32;21174;-60
2023/11/30 09:03:44;;;;;;;0.40;0.40;;;;;;;;;;4393940;32;20097;-59
2023/11/30 09:06:11;;;;;;;0.40;0.40;;;;;;;;;;4396120;32;20100;-60
2023/11/30 09:08:37;;;;;;;0.30;0.30;;;;;;;;;;4398075;32;20648;-60
2023/11/30 09:11:03;;;;;;;1.10;0.75;;;;;;;;;;4409011;32;20096;-61
2023/11/30 09:13:31;;;;;;;0.40;0.40;;;;;;;;;;4385902;32;20110;-62
2023/11/30 09:15:57;;;;;;;1.27;0.95;;;;;;;;;;4407846;32;20109;-62
2023/11/30 09:18:23;;;;;;;1.92;1.37;;;;;;;;;;4410528;32;20741;-61
2023/11/30 09:20:49;;;;;;;3.12;1.00;;;;;;;;;;4411144;32;20112;-59
2023/11/30 09:23:15;;;;;;;0.70;0.70;;;;;;;;;;4406592;32;21060;-59
2023/11/30 09:25:41;;;;;;;0.50;0.50;;;;;;;;;;4407213;32;20146;-61
2023/11/30 09:28:09;;;;;;;0.45;0.45;;;;;;;;;;4390895;32;21559;-60
2023/11/30 09:30:35;;;;;;;0.68;0.68;;;;;;;;;;4400819;32;20085;-61
2023/11/30 09:33:01;;;;;;;0.40;0.40;;;;;;;;;;4405462;32;20085;-60
2023/11/30 09:35:27;;;;;;;0.40;0.40;;;;;;;;;;4398377;32;20479;-58
2023/11/30 09:37:52;;;;;;;0.52;0.52;;;;;;;;;;4401673;32;20089;-61
2023/11/30 09:40:18;;;;;;;0.60;0.60;;;;;;;;;;4404500;32;20414;-60
2023/11/30 09:42:46;;;;;;;0.47;0.47;;;;;;;;;;4399528;32;20210;-58
2023/11/30 09:45:13;;;;;;;0.37;0.37;;;;;;;;;;4393323;32;20773;-60
2023/11/30 09:47:38;;;;;;;0.75;0.75;;;;;;;;;;4395301;32;21611;-60
2023/11/30 09:50:05;;;;;;;0.52;0.52;;;;;;;;;;4394130;32;20791;-60
2023/11/30 09:52:31;;;;;;;0.40;0.40;;;;;;;;;;4401638;32;20113;-61
2023/11/30 09:54:57;;;;;;;0.50;0.50;;;;;;;;;;4384966;32;20086;-61
2023/11/30 09:57:24;;;;;;;0.68;0.68;;;;;;;;;;4404034;32;20815;-61
2023/11/30 09:59:50;;;;;;;0.37;0.37;;;;;;;;;;4392711;32;20081;-61
2023/11/30 10:02:17;;;;;;;0.70;0.70;;;;;;;;;;4391651;32;21107;-61
2023/11/30 10:04:43;;;;;;;3.30;1.95;;;;;;;;;;4376217;32;21347;-58
2023/11/30 10:07:08;;;;;;;2.85;1.60;;;;;;;;;;4390739;32;20187;-59
2023/11/30 10:09:37;;;;;;;0.40;0.40;;;;;;;;;;4397507;32;20762;-59
2023/11/30 10:12:03;;;;;;;0.50;0.50;;;;;;;;;;4387512;32;20759;-59
2023/11/30 10:14:29;;;;;;;0.45;0.45;;;;;;;;;;4381262;32;20089;-60
2023/11/30 10:16:55;;;;;;;0.50;0.50;;;;;;;;;;4394109;32;20561;-60
2023/11/30 10:19:21;;;;;;;0.95;0.95;;;;;;;;;;4397002;32;20178;-59
2023/11/30 10:21:47;;;;;;;0.60;0.60;;;;;;;;;;4403181;32;20085;-59
2023/11/30 10:24:13;;;;;;;0.60;0.60;;;;;;;;;;4395738;32;21499;-59
2023/11/30 10:26:40;;;;;;;0.30;0.30;;;;;;;;;;4394375;32;20077;-59
2023/11/30 10:29:06;;;;;;;0.30;0.30;;;;;;;;;;4394264;32;20081;-57
2023/11/30 10:31:36;;;;;;;0.37;0.37;;;;;;;;;;4389196;32;20120;-59
2023/11/30 10:34:07;;;;;;;0.40;0.40;;;;;;;;;;4382823;32;20084;-59
2023/11/30 10:36:33;;;;;;;;;;;;;;;;;;4380569;32;21148;-59
2023/11/30 10:39:22;;;;;;;0.43;0.43;;;;;;;;;;4387096;32;20001;-59
2023/11/30 10:41:50;;;;;;;0.50;0.50;;;;;;;;;;4386122;32;20978;-59
2023/11/30 10:44:25;;;;;;;0.68;0.68;;;;;;;;;;4392010;32;20616;-59
2023/11/30 10:46:53;;;;;;;0.40;0.40;;;;;;;;;;4384976;32;20106;-59
2023/11/30 10:49:21;;;;;;;0.30;0.30;;;;;;;;;;4388421;32;20143;-59
2023/11/30 10:51:47;;;;;;;9.52;1.23;;;;;;;;;;4383764;32;20080;-61
2023/11/30 10:54:17;;;;;;;0.45;0.45;;;;;;;;;;4387385;32;21064;-61
2023/11/30 10:56:43;;;;;;;0.40;0.40;;;;;;;;;;4389834;32;20072;-59
2023/11/30 10:59:13;;;;;;;0.30;0.30;;;;;;;;;;4387394;32;20085;-62
2023/11/30 11:01:40;;;;;;;0.40;0.40;;;;;;;;;;4385639;32;20765;-58
2023/11/30 11:04:08;;;;;;;0.43;0.43;;;;;;;;;;4373708;32;20541;-60
2023/11/30 11:06:34;;;;;;;0.88;0.88;;;;;;;;;;4391659;32;20762;-59
2023/11/30 11:09:00;;;;;;;0.43;0.43;;;;;;;;;;4390171;32;20092;-60
2023/11/30 11:11:28;;;;;;;0.37;0.37;;;;;;;;;;4387540;32;20541;-62
2023/11/30 11:13:54;;;;;;;0.30;0.30;;;;;;;;;;4372103;32;20113;-60
2023/11/30 11:16:20;;;;;;;0.93;0.93;;;;;;;;;;4388816;32;20092;-61
2023/11/30 11:18:46;;;;;;;0.40;0.40;;;;;;;;;;4389033;32;20112;-60
2023/11/30 11:21:29;;;;;;;0.40;0.40;;;;;;;;;;4404808;32;20089;-57
2023/11/30 11:24:01;;;;;;;0.30;0.30;;;;;;;;;;4408086;32;20101;-61
2023/11/30 11:26:27;;;;;;;0.30;0.30;;;;;;;;;;4391701;32;20096;-62
2023/11/30 11:28:53;;;;;;;0.60;0.60;;;;;;;;;;4404621;32;20630;-62
2023/11/30 11:31:19;;;;;;;0.93;0.85;;;;;;;;;;4409420;32;20088;-62
2023/11/30 11:33:45;;;;;;;0.30;0.30;;;;;;;;;;4393672;32;20078;-62
2023/11/30 11:36:13;;;;;;;0.40;0.40;;;;;;;;;;4405353;32;20889;-62
2023/11/30 11:38:40;;;;;;;0.30;0.30;;;;;;;;;;4410899;32;20081;-62
2023/11/30 11:41:06;;;;;;;0.47;0.47;;;;;;;;;;4408085;32;20101;-60
2023/11/30 11:43:32;;;;;;;0.30;0.30;;;;;;;;;;4404343;32;20092;-61
2023/11/30 11:45:58;;;;;;;1.85;1.52;;;;;;;;;;4411986;32;20806;-63
2023/11/30 11:48:24;;;;;;;0.60;0.60;;;;;;;;;;4414205;32;20736;-64
2023/11/30 11:50:58;;;;;;;0.30;0.30;;;;;;;;;;4414623;32;87868;-61
2023/11/30 11:53:23;;;;;;;0.43;0.43;;;;;;;;;;4398546;32;20304;-63
2023/11/30 11:55:49;;;;;;;0.37;0.37;;;;;;;;;;4396256;32;20077;-63
2023/11/30 11:58:15;;;;;;;0.40;0.40;;;;;;;;;;4406562;32;20119;-61
2023/11/30 12:00:51;;;;;;;0.30;0.30;;;;;;;;;;4399180;32;20073;-63
2023/11/30 12:03:17;;;;;;;0.40;0.40;;;;;;;;;;4396849;32;20200;-62
2023/11/30 12:05:47;;;;;;;0.40;0.40;;;;;;;;;;4408833;32;20081;-60
2023/11/30 12:08:14;;;;;;;0.37;0.37;;;;;;;;;;4394632;32;20670;-61
2023/11/30 12:10:41;;;;;;;0.60;0.60;;;;;;;;;;4393146;32;20081;-64
2023/11/30 12:13:09;;;;;;;0.30;0.30;;;;;;;;;;4409874;32;20101;-63
2023/11/30 12:15:35;;;;;;;0.35;0.35;;;;;;;;;;4398207;32;20093;-60
2023/11/30 12:18:01;;;;;;;0.37;0.37;;;;;;;;;;4407565;32;20085;-61
2023/11/30 12:20:29;;;;;;;0.35;0.35;;;;;;;;;;4404295;32;20924;-62
2023/11/30 12:22:55;;;;;;;0.20;0.20;;;;;;;;;;4391858;32;20098;-62
2023/11/30 12:25:21;;;;;;;5.18;0.95;;;;;;;;;;4400682;32;20092;-63
2023/11/30 12:27:47;;;;;;;0.55;0.55;;;;;;;;;;4385568;32;20076;-61
2023/11/30 12:30:13;;;;;;;0.30;0.30;;;;;;;;;;4405690;32;21030;-63
2023/11/30 12:32:39;;;;;;;52.53;1.40;;;;;;;;;;4403904;32;20081;-62
2023/11/30 12:35:05;;;;;;;0.50;0.50;;;;;;;;;;4400871;32;20123;-63
2023/11/30 12:37:31;;;;;;;0.30;0.30;;;;;;;;;;4406311;32;20077;-61
2023/11/30 12:39:58;;;;;;;0.30;0.30;;;;;;;;;;4385313;32;20070;-59
2023/11/30 12:42:24;;;;;;;0.40;0.40;;;;;;;;;;4406589;32;20089;-60
2023/11/30 12:44:51;;;;;;;0.50;0.50;;;;;;;;;;4397972;32;20920;-60
2023/11/30 12:47:17;;;;;;;0.40;0.40;;;;;;;;;;4408853;32;20450;-60
2023/11/30 12:49:43;;;;;;;0.40;0.40;;;;;;;;;;4421774;32;20093;-62
2023/11/30 12:52:09;;;;;;;0.30;0.30;;;;;;;;;;4411037;32;20168;-62
2023/11/30 12:54:36;;;;;;;0.30;0.30;;;;;;;;;;4396137;32;20868;-60
2023/11/30 12:57:03;;;;;;;0.50;0.50;;;;;;;;;;4415330;32;20089;-61
2023/11/30 12:59:29;;;;;;;4.35;1.73;;;;;;;;;;4393725;32;21300;-60
2023/11/30 13:01:56;;;;;;;0.35;0.35;;;;;;;;;;4408610;32;20081;-62
2023/11/30 13:04:23;;;;;;;1.65;0.73;;;;;;;;;;4413883;32;20093;-62
2023/11/30 13:06:50;;;;;;;0.37;0.37;;;;;;;;;;4417876;32;20203;-61
2023/11/30 13:09:16;;;;;;;0.50;0.50;;;;;;;;;;4402601;32;20443;-61
2023/11/30 13:11:42;;;;;;;0.85;0.85;;;;;;;;;;4415814;32;20126;-58
2023/11/30 13:14:08;;;;;;;0.40;0.40;;;;;;;;;;4415447;32;21209;-60
2023/11/30 13:16:34;;;;;;;0.30;0.30;;;;;;;;;;4406032;32;20165;-60
2023/11/30 13:19:01;;;;;;;0.40;0.40;;;;;;;;;;4412523;32;20069;-61
2023/11/30 13:21:27;;;;;;;0.30;0.30;;;;;;;;;;4403292;32;20081;-63
2023/11/30 13:23:53;;;;;;;0.50;0.50;;;;;;;;;;4408603;32;20539;-63
2023/11/30 13:26:20;;;;;;;0.60;0.60;;;;;;;;;;4420198;32;20057;-63
2023/11/30 13:28:46;;;;;;;0.40;0.40;;;;;;;;;;4419720;32;20073;-62
2023/11/30 13:31:13;;;;;;;0.65;0.65;;;;;;;;;;4420432;32;20553;-62
2023/11/30 13:33:39;;;;;;;0.35;0.35;;;;;;;;;;4416619;32;20082;-63
2023/11/30 13:36:06;;;;;;;0.32;0.32;;;;;;;;;;4404041;32;20114;-61
2023/11/30 13:38:32;;;;;;;14.45;1.85;;;;;;;;;;4398132;32;20085;-62
2023/11/30 13:40:58;;;;;;;0.30;0.30;;;;;;;;;;4398489;32;20433;-61
2023/11/30 13:43:25;;;;;;;0.40;0.40;;;;;;;;;;4418706;32;20695;-61
2023/11/30 13:45:51;;;;;;;0.62;0.62;;;;;;;;;;4411376;32;20069;-63
2023/11/30 13:48:17;;;;;;;37.22;2.15;;;;;;;;;;4417794;32;20057;-61
2023/11/30 13:50:45;;;;;;;0.50;0.50;;;;;;;;;;4418748;32;20603;-63
2023/11/30 13:53:12;;;;;;;0.50;0.50;;;;;;;;;;4399367;32;20077;-62
2023/11/30 13:55:38;;;;;;;0.30;0.30;;;;;;;;;;4417341;32;20447;-62
2023/11/30 13:58:04;;;;;;;0.65;0.65;;;;;;;;;;4401300;32;20090;-62
2023/11/30 14:00:30;;;;;;;0.70;0.70;;;;;;;;;;4417655;32;20081;-63
2023/11/30 14:02:56;;;;;;;0.50;0.50;;;;;;;;;;4416773;32;20159;-62
2023/11/30 14:05:22;;;;;;;0.30;0.30;;;;;;;;;;4417897;32;20844;-62
2023/11/30 14:07:48;;;;;;;0.30;0.30;;;;;;;;;;4403700;32;20069;-62
2023/11/30 14:10:14;;;;;;;0.40;0.40;;;;;;;;;;4403218;32;20101;-63
2023/11/30 14:12:41;;;;;;;0.50;0.50;;;;;;;;;;4417173;32;20096;-61
2023/11/30 14:15:10;;;;;;;0.32;0.32;;;;;;;;;;4400581;32;20088;-61
2023/11/30 14:17:37;;;;;;;0.30;0.30;;;;;;;;;;4420650;32;20122;-61
2023/11/30 14:20:05;;;;;;;0.75;0.75;;;;;;;;;;4414365;32;20093;-62
2023/11/30 14:22:32;;;;;;;5.15;0.98;;;;;;;;;;4400949;32;20490;-62
2023/11/30 14:24:58;;;;;;;0.60;0.60;;;;;;;;;;4414582;32;20109;-61
2023/11/30 14:27:24;;;;;;;0.62;0.62;;;;;;;;;;4410486;32;20082;-61
2023/11/30 14:29:50;;;;;;;0.30;0.30;;;;;;;;;;4416480;32;20100;-62
2023/11/30 14:32:18;;;;;;;0.40;0.40;;;;;;;;;;4409991;32;20081;-62
2023/11/30 14:34:46;;;;;;;0.40;0.40;;;;;;;;;;4413310;32;20576;-62
2023/11/30 14:37:14;;;;;;;1.10;0.80;;;;;;;;;;4421363;32;20069;-60
2023/11/30 14:39:41;;;;;;;0.52;0.52;;;;;;;;;;4422173;32;20171;-60